^^
Datos históricos de la estación: Murcia-Puente Tocinos
Diario Informe para Enero 31, 2019 Unidades:  Ingés    Métrico   Ambas
Diario Semanal Mensual Anual
  Máxima: Mínima: Promedio:
Temperatura: 72.1 °F 52.5 °F 61.3 °F
Punto de rocio: 47.7 °F 34.9 °F 42.1 °F
Humedad: 68% 34% 50%
Velocidad viento: 17mph 0mph 6.6mph
Racha viento: 36mph - -
Viento- - SO
Presión: 29.8 in 29.6 in -
Precipitación: 0 in    
 
 
Tabla de datos para Enero 31, 2019
Hora Temperatura Punto de rocio Presión Viento Velocidad viento Racha viento Humedad Intensidad lluvia(por hora) Nubes
00:04 55.8 °F 35.6 °F 29.8 in NO 1.8 mph 5.2 mph 46.9% 0 in
00:09 55.4 °F 35.6 °F 29.8 in ESE 1.9 mph 5 mph 47% 0 in
00:14 55.2 °F 35.8 °F 29.8 in SE 2 mph 5 mph 47.9% 0 in
00:19 55.2 °F 35.8 °F 29.8 in SSE 2.6 mph 5.2 mph 47.8% 0 in
00:24 55.4 °F 35.6 °F 29.8 in Sur 3.1 mph 5.2 mph 47.2% 0 in
00:29 55.6 °F 35.6 °F 29.8 in SSO 3.4 mph 5.2 mph 47% 0 in
00:34 55.6 °F 35.2 °F 29.8 in Sur 3.6 mph 5.4 mph 46.1% 0 in
00:39 55.8 °F 35.2 °F 29.8 in SSO 3.6 mph 5 mph 46% 0 in
00:44 55.8 °F 35.2 °F 29.8 in SSO 3.6 mph 5 mph 46% 0 in
00:49 55.8 °F 35.2 °F 29.8 in SO 2.9 mph 5 mph 45.9% 0 in
00:54 55.9 °F 35.1 °F 29.8 in SO 2.4 mph 5 mph 45.5% 0 in
00:59 55.9 °F 34.9 °F 29.8 in SO 2.4 mph 5 mph 45% 0 in
01:04 55.9 °F 35.1 °F 29.8 in SO 2.4 mph 4.6 mph 45.3% 0 in
01:09 55.9 °F 36 °F 29.8 in SO 2.7 mph 5 mph 46.9% 0 in
01:14 55.8 °F 36.3 °F 29.8 in SO 2.9 mph 5 mph 47.7% 0 in
01:19 55.6 °F 36.1 °F 29.8 in SO 2.4 mph 3.6 mph 47.8% 0 in
01:24 55.6 °F 36.1 °F 29.7 in SO 2 mph 4 mph 48% 0 in
01:29 55.2 °F 36.1 °F 29.7 in SO 2 mph 4 mph 48.3% 0 in
01:34 55.2 °F 36 °F 29.7 in SO 2 mph 5 mph 48% 0 in
01:39 55 °F 35.8 °F 29.7 in SO 2.5 mph 5 mph 48% 0 in
01:44 55 °F 35.6 °F 29.7 in OSO 2.9 mph 5.2 mph 47.7% 0 in
01:49 55 °F 35.4 °F 29.7 in OSO 2.6 mph 5 mph 47.3% 0 in
01:54 55.2 °F 35.2 °F 29.7 in OSO 2.4 mph 5 mph 47% 0 in
01:59 55.2 °F 35.2 °F 29.7 in OSO 2.2 mph 5 mph 47% 0 in
02:04 55 °F 35.4 °F 29.7 in ONO 2 mph 4 mph 47.5% 0 in
02:09 55 °F 35.8 °F 29.7 in ONO 2 mph 3.6 mph 48.3% 0 in
02:14 54.9 °F 36.1 °F 29.7 in NO 2 mph 4 mph 49.2% 0 in
02:19 54.5 °F 36.3 °F 29.7 in North 1.9 mph 3.5 mph 50.3% 0 in
02:24 54.1 °F 36.5 °F 29.7 in North 1.8 mph 3.5 mph 51% 0 in
02:29 54 °F 36.3 °F 29.7 in North 1.6 mph 3.6 mph 51.3% 0 in
02:34 54 °F 36.1 °F 29.7 in NNO 1.4 mph 4 mph 51% 0 in
02:39 53.8 °F 36.1 °F 29.7 in NNO 1.6 mph 4 mph 51% 0 in
02:44 53.8 °F 36.5 °F 29.7 in NNE 1.8 mph 4 mph 51.9% 0 in
02:49 53.8 °F 37 °F 29.7 in SSE 2.1 mph 5.8 mph 53.1% 0 in
02:54 53.8 °F 37 °F 29.7 in SSE 2.4 mph 6 mph 53% 0 in
02:59 53.8 °F 37 °F 29.7 in SSE 2.7 mph 5 mph 53% 0 in
03:04 53.8 °F 37 °F 29.7 in SO 2.9 mph 5 mph 53% 0 in
03:09 53.6 °F 37 °F 29.7 in SO 2.6 mph 5.8 mph 53.1% 0 in
03:14 53.8 °F 37 °F 29.7 in SO 2.4 mph 6.2 mph 53% 0 in
03:19 54 °F 37.2 °F 29.7 in SO 3.3 mph 6.2 mph 53% 0 in
03:24 54.3 °F 37.2 °F 29.7 in SO 4 mph 6.9 mph 52.3% 0 in
03:29 54.7 °F 37.4 °F 29.7 in SO 4.4 mph 7 mph 52% 0 in
03:34 54.9 °F 37.6 °F 29.7 in SO 4.7 mph 6 mph 52% 0 in
03:39 55 °F 37.8 °F 29.7 in SO 4.5 mph 6.9 mph 52% 0 in
03:44 55 °F 37.8 °F 29.7 in SO 4.3 mph 7 mph 52% 0 in
03:49 55.2 °F 37.9 °F 29.7 in SO 3.5 mph 5 mph 52% 0 in
03:54 55.2 °F 38.1 °F 29.7 in SO 2.9 mph 4 mph 52.5% 0 in
03:59 54.7 °F 38.1 °F 29.7 in ESE 2.2 mph 4.6 mph 53.4% 0 in
04:04 54.1 °F 37.9 °F 29.7 in Este 1.8 mph 5 mph 54.5% 0 in
04:09 53.8 °F 38.1 °F 29.7 in Este 1.6 mph 2.3 mph 55.4% 0 in
04:14 53.4 °F 38.1 °F 29.7 in Este 1.4 mph 2.3 mph 56% 0 in
04:19 53.4 °F 38.5 °F 29.7 in Este 0.6 mph 1.4 mph 56.8% 0 in
04:24 53.4 °F 38.7 °F 29.7 in Calm   1.4 mph 57% 0 in
04:29 53.4 °F 38.7 °F 29.7 in Calm   2.9 mph 57% 0 in
04:34 53.4 °F 38.7 °F 29.7 in Calm   3 mph 57% 0 in
04:39 53.4 °F 38.7 °F 29.7 in Este 1 mph 4.6 mph 57% 0 in
04:44 53.4 °F 39 °F 29.7 in Este 1.8 mph 5 mph 58% 0 in
04:49 53.4 °F 39 °F 29.7 in Este 1.9 mph 3.5 mph 58% 0 in
04:54 53.4 °F 39 °F 29.7 in Este 2 mph 3.5 mph 58% 0 in
04:59 53.6 °F 39.2 °F 29.7 in Este 1.9 mph 3 mph 58% 0 in
05:04 53.6 °F 39.2 °F 29.7 in Este 1.8 mph 2.9 mph 58% 0 in
05:09 53.8 °F 39.4 °F 29.7 in Este 1.6 mph 3 mph 58% 0 in
05:14 53.8 °F 39.4 °F 29.7 in Este 1.4 mph 2 mph 58% 0 in
05:19 53.8 °F 39.4 °F 29.7 in Este 0.6 mph 3.1 mph 58.3% 0 in
05:24 53.8 °F 39.7 °F 29.7 in Calm   4.7 mph 59% 0 in
05:29 54 °F 39.9 °F 29.7 in OSO 1.1 mph 5.8 mph 59% 0 in
05:34 54.1 °F 39.9 °F 29.7 in OSO 2 mph 6 mph 58.7% 0 in
05:39 54.3 °F 39.7 °F 29.6 in Oeste 2.2 mph 5 mph 58% 0 in
05:44 54.5 °F 40.1 °F 29.6 in Oeste 2.4 mph 5 mph 58% 0 in
05:49 54.7 °F 40.3 °F 29.6 in Oeste 1.8 mph 3.5 mph 58% 0 in
05:54 54.5 °F 39.9 °F 29.6 in North 1.4 mph 4.6 mph 58% 0 in
05:59 54.1 °F 39.7 °F 29.6 in NE 1.6 mph 5 mph 58.3% 0 in
06:04 54 °F 39.9 °F 29.6 in NE 1.8 mph 2.3 mph 59% 0 in
06:09 54 °F 39.9 °F 29.6 in NE 0.8 mph 4 mph 59% 0 in
06:14 54 °F 39.9 °F 29.6 in Calm   5 mph 59% 0 in
06:19 54.1 °F 40.1 °F 29.6 in ONO 0.8 mph 5 mph 59% 0 in
06:24 54.1 °F 40.1 °F 29.6 in ONO 1.4 mph 2 mph 59% 0 in
06:29 54.1 °F 40.1 °F 29.6 in ONO 0.6 mph 2.9 mph 59% 0 in
06:34 54.1 °F 40.1 °F 29.6 in Calm   4 mph 59% 0 in
06:39 54 °F 40.1 °F 29.6 in ONO 1.1 mph 4.6 mph 59.4% 0 in
06:44 54 °F 40.5 °F 29.6 in ONO 2 mph 5 mph 60% 0 in
06:49 54 °F 40.5 °F 29.6 in ONO 0.9 mph 3.1 mph 60% 0 in
06:54 54.1 °F 40.1 °F 29.6 in Calm   3.5 mph 59.3% 0 in
06:59 54.1 °F 40.1 °F 29.6 in ONO 0.9 mph 3.6 mph 59% 0 in
07:04 54.1 °F 40.1 °F 29.6 in ONO 1.4 mph 4 mph 59% 0 in
07:09 54.3 °F 40.3 °F 29.6 in ONO 1.7 mph 4 mph 59% 0 in
07:14 54.3 °F 40.3 °F 29.6 in ONO 2 mph 4.6 mph 59% 0 in
07:19 54.3 °F 40.5 °F 29.6 in ONO 1.9 mph 5 mph 59.6% 0 in
07:24 54.3 °F 40.6 °F 29.6 in ONO 1.8 mph 3 mph 60% 0 in
07:29 54.1 °F 40.6 °F 29.6 in ONO 1.8 mph 3 mph 60% 0 in
07:34 54 °F 40.6 °F 29.6 in ONO 1.8 mph 3 mph 60.5% 0 in
07:39 54 °F 40.8 °F 29.6 in ONO 1.6 mph 2.4 mph 61% 0 in
07:44 53.8 °F 40.8 °F 29.6 in ONO 1.4 mph 3.5 mph 61.5% 0 in
07:49 53.6 °F 41 °F 29.7 in ONO 1.7 mph 3.6 mph 62% 0 in
07:54 53.6 °F 40.8 °F 29.7 in Oeste 2 mph 4 mph 62% 0 in
07:59 53.4 °F 40.6 °F 29.7 in Oeste 1.9 mph 4 mph 62% 0 in
08:04 53.4 °F 41.2 °F 29.7 in Oeste 1.8 mph 3.6 mph 63% 0 in
08:09 53.2 °F 41 °F 29.6 in Oeste 1.8 mph 4 mph 63% 0 in
08:14 53.2 °F 41 °F 29.6 in Oeste 1.8 mph 3 mph 63% 0 in
08:19 53.1 °F 41 °F 29.6 in Oeste 0.7 mph 2.4 mph 63.7% 0 in
08:24 52.9 °F 41 °F 29.6 in Calm   4.6 mph 64% 0 in
08:29 52.9 °F 41 °F 29.6 in Oeste 0.7 mph 5 mph 64% 0 in
08:34 52.9 °F 41.4 °F 29.6 in Oeste 1.4 mph 2.9 mph 64.8% 0 in
08:39 53.1 °F 41.5 °F 29.6 in Oeste 0.6 mph 3.6 mph 65% 0 in
08:44 53.2 °F 41.7 °F 29.6 in Calm   4 mph 65% 0 in
08:49 53.2 °F 41.9 °F 29.7 in Oeste 1 mph 3 mph 65% 0 in
08:54 53.4 °F 41.7 °F 29.7 in Oeste 1.8 mph 3.5 mph 64.4% 0 in
08:59 53.2 °F 41.5 °F 29.7 in North 1.8 mph 4.6 mph 64.5% 0 in
09:04 52.9 °F 41.5 °F 29.7 in NNE 1.8 mph 5 mph 65.3% 0 in
09:09 52.5 °F 41.5 °F 29.7 in North 1.9 mph 5 mph 66.3% 0 in
09:14 52.5 °F 41.9 °F 29.7 in NO 2 mph 5 mph 67% 0 in
09:19 52.5 °F 41.9 °F 29.7 in NO 2.2 mph 5 mph 67% 0 in
09:24 52.5 °F 42.3 °F 29.6 in ONO 2.4 mph 5 mph 67.8% 0 in
09:29 52.7 °F 42.4 °F 29.6 in ONO 2.4 mph 5.8 mph 68% 0 in
09:34 52.9 °F 42.3 °F 29.7 in NE 2.4 mph 6 mph 67.3% 0 in
09:39 52.9 °F 42.3 °F 29.7 in NE 2.2 mph 5.9 mph 67.2% 0 in
09:44 53.1 °F 42.3 °F 29.7 in ENE 2 mph 6 mph 67.1% 0 in
09:49 53.2 °F 42.4 °F 29.7 in ENE 2 mph 4.6 mph 67% 0 in
09:54 53.4 °F 42.8 °F 29.7 in ENE 2 mph 5 mph 67% 0 in
09:59 54 °F 43.5 °F 29.7 in NO 1.6 mph 10 mph 67.7% 0 in
10:04 55.9 °F 45.1 °F 29.7 in OSO 1.4 mph 11.8 mph 66.9% 0 in
10:09 57.7 °F 45 °F 29.7 in Oeste 3.2 mph 12 mph 62.5% 0 in
10:14 58.8 °F 45.5 °F 29.7 in SSO 4.7 mph 11.2 mph 61.3% 0 in
10:19 60.3 °F 45.9 °F 29.7 in SO 5.1 mph 17 mph 59% 0 in
10:24 61.5 °F 46 °F 29.7 in SSO 5.4 mph 17.3 mph 56.7% 0 in
10:29 62.4 °F 46 °F 29.7 in SO 7.5 mph 17 mph 55.3% 0 in
10:34 63 °F 46 °F 29.7 in SO 9.2 mph 16 mph 54.1% 0 in
10:39 63.3 °F 46 °F 29.7 in SO 8.6 mph 15 mph 53.4% 0 in
10:44 63.7 °F 46 °F 29.7 in SO 8.1 mph 15 mph 52.4% 0 in
10:49 64 °F 45.9 °F 29.7 in SO 8.3 mph 17.5 mph 51.7% 0 in
10:54 64.2 °F 45.7 °F 29.7 in SO 8.5 mph 17.3 mph 51% 0 in
10:59 64.2 °F 45.7 °F 29.7 in SO 8.5 mph 15 mph 51% 0 in
11:04 64 °F 45.5 °F 29.7 in SO 8.5 mph 16.1 mph 51% 0 in
11:09 64 °F 45.9 °F 29.7 in SO 8.6 mph 16 mph 51.7% 0 in
11:14 64 °F 46 °F 29.7 in SO 8.7 mph 16.1 mph 52% 0 in
11:19 64 °F 45.9 °F 29.7 in SO 8.7 mph 17.5 mph 51.6% 0 in
11:24 64.2 °F 45.7 °F 29.7 in SO 8.7 mph 17.3 mph 51.1% 0 in
11:29 64.2 °F 45.9 °F 29.7 in SO 9.3 mph 17.3 mph 51% 0 in
11:34 64.4 °F 45.9 °F 29.7 in SO 9.7 mph 17.3 mph 51% 0 in
11:39 64.6 °F 46 °F 29.7 in SO 9.4 mph 17.3 mph 51% 0 in
11:44 64.6 °F 46 °F 29.7 in SSO 9.2 mph 18.4 mph 51% 0 in
11:49 64.8 °F 46.2 °F 29.7 in SO 9.2 mph 18 mph 51% 0 in
11:54 64.8 °F 46.2 °F 29.7 in SO 9.2 mph 14 mph 51% 0 in
11:59 64.9 °F 46.4 °F 29.7 in SO 8.5 mph 14 mph 51% 0 in
12:04 64.9 °F 46.4 °F 29.7 in SO 8.1 mph 15 mph 51% 0 in
12:09 64.9 °F 46.4 °F 29.7 in SO 8.7 mph 19.7 mph 51% 0 in
12:14 65.1 °F 46.6 °F 29.7 in SO 9.2 mph 20 mph 51% 0 in
12:19 65.1 °F 46.4 °F 29.7 in SO 8.9 mph 20 mph 51% 0 in
12:24 64.9 °F 46.9 °F 29.7 in SO 8.7 mph 17 mph 51.9% 0 in
12:29 64.9 °F 46.9 °F 29.7 in SO 9.3 mph 16 mph 52% 0 in
12:34 64.9 °F 46.9 °F 29.7 in SSO 9.7 mph 17.5 mph 52% 0 in
12:39 65.3 °F 47.1 °F 29.7 in SO 9.9 mph 18.5 mph 51.7% 0 in
12:44 65.7 °F 46.9 °F 29.7 in SSO 10 mph 19 mph 50.8% 0 in
12:49 65.8 °F 47.1 °F 29.7 in SO 9.8 mph 17 mph 50.5% 0 in
12:54 66.2 °F 46.9 °F 29.7 in SSO 9.7 mph 15.9 mph 50% 0 in
12:59 66.7 °F 47.1 °F 29.7 in SSO 9.4 mph 19.7 mph 49.2% 0 in
13:04 67.5 °F 47.1 °F 29.7 in SSO 9.2 mph 21.9 mph 48.3% 0 in
13:09 67.5 °F 47.1 °F 29.6 in SO 9.8 mph 22 mph 48% 0 in
13:14 67.6 °F 47.3 °F 29.6 in SO 10.2 mph 21.9 mph 47.9% 0 in
13:19 67.8 °F 47.3 °F 29.6 in SO 11.5 mph 23.7 mph 47.9% 0 in
13:24 68.4 °F 47.5 °F 29.6 in SSO 12.5 mph 24.2 mph 47.2% 0 in
13:29 69.1 °F 47.7 °F 29.6 in SSO 11 mph 24 mph 46.6% 0 in
13:34 68.9 °F 47.3 °F 29.6 in SSO 9.7 mph 22 mph 46% 0 in
13:39 68.7 °F 47.1 °F 29.6 in SO 11.8 mph 21 mph 46.1% 0 in
13:44 68.9 °F 47.5 °F 29.6 in SSO 13.5 mph 18.5 mph 46.3% 0 in
13:49 69.3 °F 47.5 °F 29.6 in SO 11.7 mph 19 mph 45.8% 0 in
13:54 69.3 °F 47.3 °F 29.6 in SO 10.2 mph 20.7 mph 45.6% 0 in
13:59 69.3 °F 47.1 °F 29.6 in SO 10.8 mph 21 mph 45.4% 0 in
14:04 69.4 °F 47.1 °F 29.6 in SSO 11.2 mph 21 mph 45% 0 in
14:09 69.4 °F 47.1 °F 29.6 in SSO 10.9 mph 22.3 mph 45% 0 in
14:14 69.3 °F 46.9 °F 29.6 in SSO 10.7 mph 22 mph 45% 0 in
14:19 69.1 °F 46.8 °F 29.6 in SSO 11.3 mph 22 mph 45% 0 in
14:24 68.9 °F 47.1 °F 29.6 in SO 11.8 mph 17 mph 45.6% 0 in
14:29 68.7 °F 46.8 °F 29.6 in SSO 10.8 mph 19 mph 45.4% 0 in
14:34 68.7 °F 47.1 °F 29.6 in SO 10 mph 19 mph 45.9% 0 in
14:39 68.7 °F 46.8 °F 29.6 in SSO 9.8 mph 18.5 mph 45.2% 0 in
14:44 69.1 °F 46.8 °F 29.6 in SSO 9.7 mph 19 mph 45% 0 in
14:49 69.3 °F 46.9 °F 29.6 in SO 8.8 mph 13 mph 45% 0 in
14:54 69.4 °F 47.1 °F 29.6 in SO 8.1 mph 17.5 mph 45% 0 in
14:59 69.4 °F 47.1 °F 29.6 in SSO 7.8 mph 17.3 mph 45% 0 in
15:04 69.6 °F 47.3 °F 29.6 in SO 7.6 mph 17 mph 45% 0 in
15:09 70 °F 47.3 °F 29.6 in SO 7.9 mph 20.7 mph 44.3% 0 in
15:14 70.5 °F 47.1 °F 29.6 in SSO 8.1 mph 21.9 mph 43.2% 0 in
15:19 70.9 °F 46.9 °F 29.6 in SO 9.5 mph 22 mph 42.6% 0 in
15:24 71.1 °F 46.8 °F 29.6 in SO 10.7 mph 24.2 mph 41.8% 0 in
15:29 71.4 °F 46 °F 29.6 in SO 11.3 mph 24 mph 40.5% 0 in
15:34 72 °F 45 °F 29.6 in OSO 11.8 mph 20 mph 38.1% 0 in
15:39 72.1 °F 45.1 °F 29.6 in OSO 11.2 mph 19.6 mph 38.1% 0 in
15:44 72 °F 45.7 °F 29.6 in OSO 10.7 mph 20 mph 39% 0 in
15:49 72 °F 45.5 °F 29.6 in OSO 10.4 mph 23.7 mph 38.8% 0 in
15:54 72.1 °F 44.2 °F 29.6 in OSO 10.2 mph 28.8 mph 36.9% 0 in
15:59 72.1 °F 42.8 °F 29.6 in OSO 13 mph 35.7 mph 34.6% 0 in
16:04 72.1 °F 42.6 °F 29.6 in OSO 14.7 mph 36 mph 34.6% 0 in
16:09 72.1 °F 43 °F 29.6 in SO 15.9 mph 28 mph 34.9% 0 in
16:14 72.1 °F 42.4 °F 29.6 in OSO 16.8 mph 28.8 mph 34.3% 0 in
16:19 72.1 °F 42.4 °F 29.6 in SO 16.3 mph 29 mph 34.4% 0 in
16:24 72.1 °F 42.3 °F 29.6 in SO 15.9 mph 26 mph 34% 0 in
16:29 72.1 °F 42.3 °F 29.6 in OSO 14 mph 24.2 mph 34% 0 in
16:34 72.1 °F 42.1 °F 29.6 in SO 12.5 mph 28.8 mph 34% 0 in
16:39 72 °F 41.9 °F 29.6 in OSO 13.6 mph 31.1 mph 34% 0 in
16:44 71.6 °F 42.3 °F 29.6 in OSO 14.5 mph 31 mph 34.8% 0 in
16:49 71.4 °F 41.9 °F 29.6 in OSO 15.9 mph 30 mph 34.4% 0 in
16:54 71.4 °F 42.1 °F 29.6 in OSO 17 mph 25.3 mph 34.7% 0 in
16:59 71.2 °F 42.3 °F 29.6 in Oeste 15.2 mph 25 mph 35% 0 in
17:04 71.2 °F 42.3 °F 29.6 in OSO 14 mph 26.5 mph 35% 0 in
17:09 71.1 °F 41.9 °F 29.6 in Oeste 13 mph 27.6 mph 35% 0 in
17:14 70.7 °F 41.7 °F 29.6 in Oeste 12.3 mph 28 mph 35.1% 0 in
17:19 70.5 °F 41.7 °F 29.6 in Oeste 13.6 mph 26 mph 35.3% 0 in
17:24 70.3 °F 42.1 °F 29.6 in Oeste 14.7 mph 25 mph 36% 0 in
17:29 70.2 °F 41.9 °F 29.6 in OSO 14 mph 25 mph 36% 0 in
17:34 70.2 °F 42.3 °F 29.6 in SO 13.5 mph 21 mph 36.4% 0 in
17:39 69.8 °F 42.4 °F 29.6 in SO 12.9 mph 23.5 mph 37% 0 in
17:44 69.4 °F 42.3 °F 29.6 in OSO 12.3 mph 29.9 mph 37.5% 0 in
17:49 69.1 °F 42.4 °F 29.6 in OSO 13.5 mph 30 mph 38% 0 in
17:54 68.7 °F 42.6 °F 29.6 in OSO 14.5 mph 25 mph 38.7% 0 in
17:59 68.5 °F 42.6 °F 29.6 in Oeste 13.9 mph 24 mph 39% 0 in
18:04 68.4 °F 42.4 °F 29.6 in OSO 13.5 mph 21 mph 39% 0 in
18:09 68.4 °F 42.4 °F 29.6 in OSO 11.7 mph 21 mph 39.2% 0 in
18:14 68.2 °F 42.8 °F 29.6 in OSO 10.2 mph 16 mph 40% 0 in
18:19 67.8 °F 42.4 °F 29.6 in OSO 9.6 mph 19 mph 39.7% 0 in
18:24 67.6 °F 42.4 °F 29.6 in OSO 9.2 mph 20.8 mph 39.9% 0 in
18:29 67.6 °F 41.7 °F 29.6 in OSO 10.1 mph 21 mph 39% 0 in
18:34 67.6 °F 41.7 °F 29.6 in OSO 10.7 mph 21 mph 39% 0 in
18:39 67.5 °F 42.1 °F 29.6 in OSO 10.9 mph 18.4 mph 39.8% 0 in
18:44 67.3 °F 42.1 °F 29.6 in OSO 11.2 mph 19.2 mph 40% 0 in
18:49 67.3 °F 42.1 °F 29.6 in SO 10.9 mph 20 mph 40% 0 in
18:54 66.9 °F 41.9 °F 29.6 in SO 10.7 mph 20 mph 40% 0 in
18:59 66.7 °F 41.7 °F 29.6 in SO 10.1 mph 16 mph 40% 0 in
19:04 66.6 °F 41.7 °F 29.6 in SO 9.7 mph 15 mph 40.4% 0 in
19:09 66.6 °F 42.1 °F 29.6 in SO 8.8 mph 15 mph 41% 0 in
19:14 66.4 °F 42.1 °F 29.6 in SO 8.1 mph 18.5 mph 41% 0 in
19:19 66.4 °F 42.1 °F 29.6 in SO 8.7 mph 19 mph 41% 0 in
19:24 66.4 °F 42.1 °F 29.6 in SO 9.2 mph 20.7 mph 41% 0 in
19:29 66.4 °F 41.9 °F 29.6 in SO 9.2 mph 21 mph 41% 0 in
19:34 66.2 °F 41.7 °F 29.6 in SO 9.2 mph 15 mph 41% 0 in
19:39 66.2 °F 41.7 °F 29.6 in SO 8.9 mph 16.1 mph 41% 0 in
19:44 66 °F 42.1 °F 29.6 in SO 8.7 mph 16 mph 41.5% 0 in
19:49 65.8 °F 42.3 °F 29.6 in SSO 8.4 mph 14 mph 42% 0 in
19:54 65.7 °F 42.1 °F 29.6 in SO 8.1 mph 18.5 mph 42.3% 0 in
19:59 65.5 °F 42.4 °F 29.6 in SO 8.8 mph 21.9 mph 43% 0 in
20:04 65.3 °F 42.8 °F 29.6 in SO 9.2 mph 23 mph 44% 0 in
20:09 64.9 °F 43 °F 29.6 in SO 10.3 mph 23 mph 44.7% 0 in
20:14 64.9 °F 43.3 °F 29.6 in SSO 11.2 mph 17 mph 45.4% 0 in
20:19 64.8 °F 43.5 °F 29.6 in SO 10.1 mph 16 mph 46% 0 in
20:24 64.6 °F 43.7 °F 29.6 in SSO 9.2 mph 18.4 mph 46.9% 0 in
20:29 64.2 °F 43.7 °F 29.6 in SO 9.4 mph 18.4 mph 47.3% 0 in
20:34 64 °F 44.1 °F 29.6 in SSO 9.7 mph 18 mph 48% 0 in
20:39 64 °F 43.9 °F 29.6 in SSO 9 mph 15 mph 48% 0 in
20:44 63.9 °F 43.9 °F 29.6 in SSO 8.5 mph 10.7 mph 48% 0 in
20:49 63.9 °F 43.9 °F 29.6 in SO 7.2 mph 13 mph 48% 0 in
20:54 63.9 °F 44.2 °F 29.6 in SO 6.2 mph 18.4 mph 48.7% 0 in
20:59 63.9 °F 44.2 °F 29.6 in SSO 9 mph 19 mph 49% 0 in
21:04 63.9 °F 44.2 °F 29.6 in SSO 10.7 mph 19 mph 49% 0 in
21:09 63.9 °F 44.2 °F 29.6 in SO 10.1 mph 17 mph 49% 0 in
21:14 63.9 °F 44.2 °F 29.6 in SO 9.7 mph 17.3 mph 49% 0 in
21:19 64 °F 43.9 °F 29.6 in SO 9.4 mph 17.3 mph 48.1% 0 in
21:24 64 °F 43.9 °F 29.6 in SO 9.2 mph 15 mph 48% 0 in
21:29 64 °F 43.9 °F 29.6 in SO 8.6 mph 14 mph 48% 0 in
21:34 64 °F 43.9 °F 29.6 in SO 8.1 mph 20.7 mph 48% 0 in
21:39 64 °F 43.9 °F 29.6 in SSO 8.9 mph 21 mph 48% 0 in
21:44 64 °F 43.9 °F 29.6 in SSO 9.7 mph 18.5 mph 48% 0 in
21:49 64 °F 43.9 °F 29.6 in SSO 10.3 mph 19.6 mph 48.1% 0 in
21:54 63.9 °F 44.2 °F 29.6 in SO 10.7 mph 20 mph 49% 0 in
21:59 63.7 °F 44.1 °F 29.6 in SSO 10.1 mph 15 mph 49% 0 in
22:04 63.3 °F 43.9 °F 29.6 in SSO 9.7 mph 15 mph 49.1% 0 in
22:09 63.3 °F 44.2 °F 29.6 in SO 8.1 mph 13 mph 49.7% 0 in
22:14 63.3 °F 43.9 °F 29.6 in SSO 6.9 mph 13 mph 49% 0 in
22:19 63.3 °F 43.9 °F 29.6 in SSO 7.1 mph 15 mph 49% 0 in
22:24 63.5 °F 43.9 °F 29.6 in SO 7.4 mph 15 mph 48.8% 0 in
22:29 63.7 °F 43.5 °F 29.6 in SO 7.5 mph 14 mph 48% 0 in
22:34 63.9 °F 43.9 °F 29.6 in SSO 7.6 mph 14 mph 48% 0 in
22:39 63.9 °F 43.5 °F 29.6 in SSO 7.6 mph 13.8 mph 47.4% 0 in
22:44 64 °F 43.3 °F 29.6 in SSO 7.6 mph 16.3 mph 46.8% 0 in
22:49 64.4 °F 43.2 °F 29.6 in SSO 8.5 mph 17.5 mph 46% 0 in
22:54 64.4 °F 43.2 °F 29.6 in SSO 9.2 mph 17.3 mph 46% 0 in
22:59 64.2 °F 43 °F 29.6 in SO 8.9 mph 15 mph 46% 0 in
23:04 64.2 °F 43 °F 29.6 in SSO 8.7 mph 16.8 mph 46% 0 in
23:09 64.2 °F 43 °F 29.6 in SSO 9.3 mph 17.3 mph 46% 0 in
23:14 64.2 °F 43.2 °F 29.6 in Sur 9.7 mph 17 mph 46% 0 in
23:19 64.2 °F 43 °F 29.6 in Sur 9 mph 15 mph 46% 0 in
23:24 64.2 °F 43 °F 29.6 in SSO 8.5 mph 15.2 mph 46% 0 in
23:29 64.2 °F 43.2 °F 29.6 in SSO 8.3 mph 15 mph 46.4% 0 in
23:34 64 °F 43.5 °F 29.6 in SSO 8.1 mph 13 mph 47% 0 in
23:39 64 °F 43.3 °F 29.6 in SSO 7.8 mph 12 mph 47% 0 in
23:44 64 °F 43.3 °F 29.6 in Sur 7.6 mph 12 mph 47% 0 in
23:49 63.9 °F 43.7 °F 29.6 in SSO 6.8 mph 11.2 mph 47.6% 0 in
23:54 64 °F 43.9 °F 29.6 in SSO 6.2 mph 13.8 mph 48% 0 in
23:59 64 °F 43.9 °F 29.6 in SSO 7.3 mph 14 mph 48% 0 in
Murcia-Puente Tocinos, Espa?a
Compliments of Weather Underground - 3.25 mb

La estación de MeteoMurcia.com, publica sus datos en los siguientes proyectos:

Weather Underground PWS IMURCIAP2 Meteoclimatic www.awekas.at

W3Counter
Web Analytics